AirNav   Everest Fuels
 
 715 users online  

1O3 Lodi Airport
Lodi, California, USA

GOING TO LODI?


FAA INFORMATION EFFECTIVE 18 JUNE 2020

Location

FAA Identifier: 1O3
Lat/Long: 38-12-08.7900N 121-16-08.9100W
38-12.146500N 121-16.148500W
38.2024417,-121.2691417
(estimated)
Elevation: 59.9 ft. / 18.3 m (surveyed)
Variation: 16E (1980)
From city: 4 miles N of LODI, CA
Time zone: UTC -7 (UTC -8 during Standard Time)
Zip code: 95220

Airport Operations

Airport use: Open to the public
Activation date: 04/1940
Control tower: no
ARTCC: OAKLAND CENTER
FSS: RANCHO MURIETA FLIGHT SERVICE STATION
NOTAMs facility: RIU (NOTAM-D service available)
Attendance: 0900-DUSK
Pattern altitude: 859.9 ft. MSL
Wind indicator: yes
Segmented circle: yes
Lights: SS-SR
Beacon: white-green (lighted land airport)
Operates sunset to sunrise.

Airport Communications

CTAF: 122.9
NORCAL APPROACH: 125.1
NORCAL DEPARTURE: 125.1 ;SOUTHBOUND 125.25 ;NORTHBOUND
WX ASOS at SCK (19 nm S): PHONE 209-982-4270

Nearby radio navigation aids

VOR radial/distance  VOR name  Freq  Var
LINr284/14.7LINDEN VOR/DME114.8017E
SACr120/19.7SACRAMENTO VORTAC115.2017E
MCCr150/28.6MC CLELLAN VOR/DME109.2017E
MODr320/37.5MODESTO VOR/DME114.6017E
CCRr059/37.8CONCORD VOR/DME117.0017E
HNWr201/39.7HANGTOWN VOR/DME115.5017E

Airport Services

Fuel available: 100LL JET-A
AUTOMATED CREDIT CARD FUEL SYSTEM 24 HRS DAY.
Parking: tiedowns
Airframe service: MAJOR
Powerplant service: MAJOR
Bottled oxygen: HIGH
Bulk oxygen: NONE

Runway Information

Runway 8/26

Dimensions: 3547 x 40 ft. / 1081 x 12 m
Surface: asphalt, in fair condition
Weight bearing capacity: 
Single wheel: 30.0
Runway edge lights: low intensity
RWY 08/26 NSTD LIRL LCTD 30 FT FM PAVEMENT EDGE. END OF RUNWAY LIGHTS LOCATED AT BOTH DISPLACED THRESHOLDS TO RUNWAY 8/26.
RUNWAY 8  RUNWAY 26
Latitude: 38-12.187333N38-12.162667N
Longitude: 121-16.566000W121-15.826000W
Elevation: 55.6 ft.59.9 ft.
Traffic pattern: leftright
Runway heading: 076 magnetic, 092 true256 magnetic, 272 true
Displaced threshold: 515 ft.388 ft.
Markings: basic, in fair conditionbasic, in fair condition
Touchdown point: yes, no lightsyes, no lights
Obstructions: 35 ft. pole, 50 ft. from runway, 165 ft. right of centerline, 1:1 slope to clear
RWY 8 35 FT POLE 100 FT FM RSY END 165 FT RIGHT.
30 ft. pole, 340 ft. from runway, 90 ft. left of centerline, 4:1 slope to clear
RY 26 +15' FRONTAGE ROAD 110 FM RY END AND +20' FREEWAY 150' FM RY END. ALL 125' R - 125' L.

Runway 12/30

Dimensions: 1979 x 25 ft. / 603 x 8 m
Surface: asphalt/grooved, in fair condition
Weight bearing capacity: 
Single wheel: 30.0
RUNWAY 12  RUNWAY 30
Latitude: 38-12.210000N38-11.981000N
Longitude: 121-16.210500W121-15.916500W
Elevation: 57.5 ft.58.2 ft.
Traffic pattern: rightleft
Runway heading: 119 magnetic, 135 true299 magnetic, 315 true
Displaced threshold: 182 ft.102 ft.
Markings: numbers only, in fair conditionnumbers only, in fair condition
Touchdown point: yes, no lightsyes, no lights
Obstructions: 35 ft. tree, 660 ft. from runway, 80 ft. right of centerline, 13:1 slope to clear
RY 12 +15 FT ROAD 125 FT-150 FT FM RWY END 25 FT RIGHT 75 FT LEFT.
40 ft. tree, 750 ft. from runway, 160 ft. left of centerline, 13:1 slope to clear
RWY 30 APCH RATIO 20:1 FROM DSPLCD THR.

Airport Ownership and Management from official FAA records

Ownership: Privately-owned
Owner: ROBERT KUPKA
P.O. BOX 10
ACAMPO, CA 95220
Phone 209-369-9126
Manager: ROBERT KUPKA
23987 NORTH HWY 99
ACAMPO, CA 95220
Phone 209-369-9126

Airport Operational Statistics

Aircraft based on the field: 196
Single engine airplanes: 153
Multi engine airplanes: 16
Helicopters: 11
Gliders airplanes: 1
Ultralights: 15
    
Aircraft operations: avg 117/day *
50% local general aviation
48% transient general aviation
1% air taxi
* for 12-month period ending 19 June 2019

Additional Remarks

PARACHUTE DROP ZONE LOCATED APPROXIMATLY 1000' SOUTH OF RWY 08/26.
FOR CD CTC NORCAL APCH AT 916-361-0516.

Instrument Procedures

NOTE: All procedures below are presented as PDF files. If you need a reader for these files, you should download the free Adobe Reader.

NOT FOR NAVIGATION. Please procure official charts for flight.
FAA instrument procedures published for use from 18 June 2020 at 0901Z to 16 July 2020 at 0900Z.

 
IAPs - Instrument Approach Procedures
RNAV (GPS)-B **CHANGED**   download (161KB)
VOR-A   download (172KB)
NOTE: Special Take-Off Minimums/Departure Procedures apply   download (189KB)

Other nearby airports with instrument procedures:

KSCK - Stockton Metropolitan Airport (19 nm S)
O88 - Rio Vista Municipal Airport (20 nm W)
KMHR - Sacramento Mather Airport (21 nm N)
KSAC - Sacramento Executive Airport (21 nm NW)
KJAQ - Westover Field / Amador County Airport (25 nm NE)
 
Loc | Ops | Rwys | IFR | FBO | Links
Com | Nav | Svcs | Stats | Notes
Area around 1O3 (Lodi Airport)
 
Road maps at: MapQuest Bing Google
 
Aerial photo
WARNING: Photo may not be current or correct
Aerial photo of 1O3 (Lodi Airport)
Do you have a better or more recent aerial photo of Lodi Airport that you would like to share? If so, please send us your photo.

 
Sectional chart

 
Airport distance calculator
Flying to Lodi Airport? Find the distance to fly.

From to 1O3

Sunrise and sunset
Times for 03-Jul-2020
 Local
(UTC-7)
 Zulu
(UTC)
Morning civil twilight05:1712:17
Sunrise05:4812:48
Sunset20:3103:31
Evening civil twilight21:0204:02

Current date and time
Zulu (UTC)  04-Jul-2020 02:54:40
Local (UTC-7)  03-Jul-2020 19:54:40
 
METAR
KSCK 
19nm S 
040155Z 31010KT 10SM CLR 31/11 A2993 RMK AO2 SLP136 T03110111
KMHR 
20nm N 
032255Z 21008KT 10SM SKC 31/07 A2994
KSAC 
21nm NW 
040153Z 20007KT 10SM CLR 29/11 A2993 RMK AO2 SLP133 T02890111
KJAQ 
25nm NE 
040235Z AUTO 00000KT 10SM CLR 28/08 A3002 RMK AO1 T02770078
KC83 
28nm SW 
040235Z AUTO RMK AO2 PWINO
KMCC 
29nm N 
040235Z AUTO 19008KT 10SM CLR 30/08 A2992 RMK AO2
KCPU 
29nm E 
040235Z AUTO 30006KT 10SM CLR 29/05 A2999 RMK AO2 T02920046
KSUU 
31nm W 
040158Z AUTO 23020KT 10SM CLR 26/11 A2993 RMK AO2 SLP142 T02590109 $
KEDU 
31nm NW 
040235Z AUTO 17007KT 10SM CLR 27/14 A2993 RMK AO1
KTCY 
32nm S 
040235Z AUTO 32009KT 300V360 10SM CLR 28/06 A2994 RMK A01
TAF
KSCK 
19nm S 
031726Z 0318/0418 30008KT P6SM SKC
KMHR 
20nm N 
031726Z 0318/0418 20006KT P6SM SKC AMD NOT SKED
KSAC 
21nm NW 
031726Z 0318/0418 20007KT P6SM SKC
NOTAMs
Click for the latest NOTAMs
NOTAMs are issued by the DoD/FAA and will open in a separate window not controlled by AirNav.

 

 
 

FBO, Fuel Providers, and Aircraft Ground Support

  
 Business Name 
 
 Contact 
 
 Services / Description 
 
Fuel Prices
 
Comments
  
Lodi Airport 209-369-9126
no information available

If you are affiliated with Lodi Airport and would like to show here your services, contact info, web link, logo, and more, click here
100LL Jet A
SS $4.49 $4.49 
 Updated 01-Jul-2020
 
   write
SS=Self service
Update Fuel Prices
 

Where to Eat: Catering, Restaurants, Food shops

  
 Business Name 
 
 Contact 
 
 Services / Description 
 
Distance
 
Comments
  
Lodi Airport Cafe 209-369-6144
no information available

If you are affiliated with Lodi Airport Cafe and would like to show here your services, contact info, web link, logo, and more, click here
on airport  
   1 read write
 

Would you like to see your business listed on this page?

 If your business provides an interesting product or service to pilots, flight crews, aircraft, or users of the Lodi Airport, you should consider listing it here.  To start the listing process, click on the button below
 
Add a business
 

Other Pages about Lodi Airport

lodiairport.com
 
Update a link
 
Copyright © AirNav, LLC. All rights reserved. Privacy Policy  Contact